首页
METAR-TAF:

METAR-TAF

机场 :

Marham, 英格兰

纬度: 52-39N, 经度: 000-34E, 海拔: 23米

当前天气观测

该预报发布于29分钟前的02:50 UTC
风速5节,风向南转西南
温度 5°C
湿度 93%
气压 1008 hPa
能見度: 7000

METAR: EGYM 170250Z AUTO 20005KT 7000 HZ OVC011/// 05/04 Q1008

时间: 03:19 (03:19 UTC)

预报

该预报发布于10小时和15分钟前的17:04 UTC
预报有效从15日的 18点(UTC)到 15日的 24点(UTC)
风速12节,风向北转东北
能见度10公里或以上
少量云层高于2000英尺
多云层高于3000英尺
短暂存在
从 15日的 18点(UTC)到 15日的 20点(UTC)
风速16节,风向北转东北,有时为26节阵风
少量云层高于1000英尺
散云层高于2000英尺
几率 40% :
短暂存在
从 15日的 18点(UTC)到 15日的 20点(UTC)
能見度: 6000
散云层高于800英尺
几率 40% :
短暂存在
从 15日的 20点(UTC)到 15日的 24点(UTC)
能見度: 7000
散云层高于2000英尺
小阵雨

TAF: EGYM 151704Z 1518/1524 03012KT 9999 FEW020 BKN030 TEMPO 1518/1520 03016G26KT FEW010 SCT020 PROB40 TEMPO 1518/1520 6000 RA SCT008 PROB40 TEMPO 1520/1524 7000 -SHRA SCT020

超过4000个机场的气象观测和天气预报(METAR&TAF报告)。

可查询的气象台以黄色和红色小点在地图上表示。

将鼠标移到小点上方,可查看气象台名称。

然后点击查看天气观测和预报。

如需切换地图:点击带黑十字的绿色按钮放大地图;点击带横线的绿色按钮缩小地图;或者点击绿色箭头查看邻近地区的地图。


METAR-TAF: